sensor_id;sensor_type;location;lat;lon;timestamp;temperature;humidity
17296;DHT22;8766;51.480;6.872;2022-07-05T00:01:19;20.80;44.00
17296;DHT22;8766;51.480;6.872;2022-07-05T00:03:46;20.80;44.10
17296;DHT22;8766;51.480;6.872;2022-07-05T00:06:13;20.80;44.10
17296;DHT22;8766;51.480;6.872;2022-07-05T00:08:40;20.80;44.10
17296;DHT22;8766;51.480;6.872;2022-07-05T00:11:07;20.80;44.10
17296;DHT22;8766;51.480;6.872;2022-07-05T00:13:34;20.70;44.10
17296;DHT22;8766;51.480;6.872;2022-07-05T00:16:01;20.70;44.20
17296;DHT22;8766;51.480;6.872;2022-07-05T00:18:30;20.70;44.20
17296;DHT22;8766;51.480;6.872;2022-07-05T00:20:57;20.70;44.30
17296;DHT22;8766;51.480;6.872;2022-07-05T00:23:24;20.70;44.30
17296;DHT22;8766;51.480;6.872;2022-07-05T00:25:51;20.60;44.30
17296;DHT22;8766;51.480;6.872;2022-07-05T00:28:18;20.60;44.30
17296;DHT22;8766;51.480;6.872;2022-07-05T00:30:45;20.60;44.30
17296;DHT22;8766;51.480;6.872;2022-07-05T00:33:12;20.60;44.40
17296;DHT22;8766;51.480;6.872;2022-07-05T00:35:41;20.60;44.40
17296;DHT22;8766;51.480;6.872;2022-07-05T00:38:08;20.50;44.30
17296;DHT22;8766;51.480;6.872;2022-07-05T00:40:35;20.50;44.40
17296;DHT22;8766;51.480;6.872;2022-07-05T00:43:02;20.50;44.40
17296;DHT22;8766;51.480;6.872;2022-07-05T00:45:29;20.50;44.50
17296;DHT22;8766;51.480;6.872;2022-07-05T00:47:56;20.50;44.50
17296;DHT22;8766;51.480;6.872;2022-07-05T00:50:23;20.50;44.50
17296;DHT22;8766;51.480;6.872;2022-07-05T00:52:55;20.50;44.60
17296;DHT22;8766;51.480;6.872;2022-07-05T00:55:22;20.40;44.50
17296;DHT22;8766;51.480;6.872;2022-07-05T00:57:50;20.40;44.50
17296;DHT22;8766;51.480;6.872;2022-07-05T01:00:17;20.40;44.60
17296;DHT22;8766;51.480;6.872;2022-07-05T01:02:45;20.40;44.60
17296;DHT22;8766;51.480;6.872;2022-07-05T01:05:12;20.40;44.60
17296;DHT22;8766;51.480;6.872;2022-07-05T01:07:39;20.40;44.60
17296;DHT22;8766;51.480;6.872;2022-07-05T01:10:08;20.40;44.60
17296;DHT22;8766;51.480;6.872;2022-07-05T01:12:38;20.40;44.50
17296;DHT22;8766;51.480;6.872;2022-07-05T01:15:06;20.50;44.50
17296;DHT22;8766;51.480;6.872;2022-07-05T01:17:34;20.50;44.50
17296;DHT22;8766;51.480;6.872;2022-07-05T01:20:03;20.50;44.40
17296;DHT22;8766;51.480;6.872;2022-07-05T01:22:49;20.50;44.50
17296;DHT22;8766;51.480;6.872;2022-07-05T01:25:18;20.40;44.60
17296;DHT22;8766;51.480;6.872;2022-07-05T01:27:46;20.40;44.60
17296;DHT22;8766;51.480;6.872;2022-07-05T01:30:14;20.40;44.70
17296;DHT22;8766;51.480;6.872;2022-07-05T01:32:41;20.40;44.70
17296;DHT22;8766;51.480;6.872;2022-07-05T01:35:09;20.30;44.60
17296;DHT22;8766;51.480;6.872;2022-07-05T01:37:38;20.30;44.70
17296;DHT22;8766;51.480;6.872;2022-07-05T01:40:06;20.30;44.70
17296;DHT22;8766;51.480;6.872;2022-07-05T01:42:34;20.20;44.80
17296;DHT22;8766;51.480;6.872;2022-07-05T01:45:01;20.20;44.90
17296;DHT22;8766;51.480;6.872;2022-07-05T01:47:28;20.20;45.00
17296;DHT22;8766;51.480;6.872;2022-07-05T01:49:57;20.10;45.10
17296;DHT22;8766;51.480;6.872;2022-07-05T01:52:27;20.00;45.10
17296;DHT22;8766;51.480;6.872;2022-07-05T01:54:58;20.00;45.30
17296;DHT22;8766;51.480;6.872;2022-07-05T01:57:26;19.90;45.20
17296;DHT22;8766;51.480;6.872;2022-07-05T01:59:53;19.90;45.30
17296;DHT22;8766;51.480;6.872;2022-07-05T02:02:20;19.90;45.40
17296;DHT22;8766;51.480;6.872;2022-07-05T02:04:47;19.80;45.40
17296;DHT22;8766;51.480;6.872;2022-07-05T02:07:14;19.80;45.40
17296;DHT22;8766;51.480;6.872;2022-07-05T02:09:42;19.90;45.30
17296;DHT22;8766;51.480;6.872;2022-07-05T02:12:11;19.90;45.20
17296;DHT22;8766;51.480;6.872;2022-07-05T02:14:38;20.00;45.20
17296;DHT22;8766;51.480;6.872;2022-07-05T02:17:05;20.00;45.10
17296;DHT22;8766;51.480;6.872;2022-07-05T02:19:33;20.00;45.00
17296;DHT22;8766;51.480;6.872;2022-07-05T02:22:01;20.00;45.00
17296;DHT22;8766;51.480;6.872;2022-07-05T02:24:28;20.00;45.00
17296;DHT22;8766;51.480;6.872;2022-07-05T02:26:55;20.00;45.00
17296;DHT22;8766;51.480;6.872;2022-07-05T02:29:23;20.00;45.10
17296;DHT22;8766;51.480;6.872;2022-07-05T02:31:50;20.00;45.20
17296;DHT22;8766;51.480;6.872;2022-07-05T02:34:17;19.90;45.20
17296;DHT22;8766;51.480;6.872;2022-07-05T02:36:44;19.80;45.30
17296;DHT22;8766;51.480;6.872;2022-07-05T02:39:11;19.80;45.40
17296;DHT22;8766;51.480;6.872;2022-07-05T02:41:38;19.80;45.50
17296;DHT22;8766;51.480;6.872;2022-07-05T02:44:05;19.80;45.50
17296;DHT22;8766;51.480;6.872;2022-07-05T02:46:33;19.80;45.60
17296;DHT22;8766;51.480;6.872;2022-07-05T02:49:00;19.80;45.50
17296;DHT22;8766;51.480;6.872;2022-07-05T02:51:27;19.80;45.50
17296;DHT22;8766;51.480;6.872;2022-07-05T02:53:54;19.80;45.40
17296;DHT22;8766;51.480;6.872;2022-07-05T02:56:21;19.80;45.30
17296;DHT22;8766;51.480;6.872;2022-07-05T02:58:48;19.80;45.30
17296;DHT22;8766;51.480;6.872;2022-07-05T03:01:15;19.90;45.30
17296;DHT22;8766;51.480;6.872;2022-07-05T03:03:43;19.90;45.30
17296;DHT22;8766;51.480;6.872;2022-07-05T03:06:10;19.80;45.30
17296;DHT22;8766;51.480;6.872;2022-07-05T03:08:37;19.80;45.40
17296;DHT22;8766;51.480;6.872;2022-07-05T03:11:04;19.80;45.50
17296;DHT22;8766;51.480;6.872;2022-07-05T03:13:32;19.80;45.60
17296;DHT22;8766;51.480;6.872;2022-07-05T03:15:59;19.70;45.50
17296;DHT22;8766;51.480;6.872;2022-07-05T03:18:26;19.70;45.60
17296;DHT22;8766;51.480;6.872;2022-07-05T03:20:54;19.70;45.60
17296;DHT22;8766;51.480;6.872;2022-07-05T03:23:21;19.60;45.70
17296;DHT22;8766;51.480;6.872;2022-07-05T03:25:48;19.60;45.80
17296;DHT22;8766;51.480;6.872;2022-07-05T03:28:15;19.50;45.90
17296;DHT22;8766;51.480;6.872;2022-07-05T03:30:42;19.50;46.00
17296;DHT22;8766;51.480;6.872;2022-07-05T03:33:09;19.40;46.20
17296;DHT22;8766;51.480;6.872;2022-07-05T03:35:36;19.30;46.20
17296;DHT22;8766;51.480;6.872;2022-07-05T03:38:05;19.30;46.30
17296;DHT22;8766;51.480;6.872;2022-07-05T03:40:32;19.30;46.30
17296;DHT22;8766;51.480;6.872;2022-07-05T03:42:58;19.30;46.30
17296;DHT22;8766;51.480;6.872;2022-07-05T03:45:25;19.30;46.30
17296;DHT22;8766;51.480;6.872;2022-07-05T03:47:54;19.30;46.30
17296;DHT22;8766;51.480;6.872;2022-07-05T03:50:23;19.30;46.30
17296;DHT22;8766;51.480;6.872;2022-07-05T03:52:50;19.30;46.40
17296;DHT22;8766;51.480;6.872;2022-07-05T03:55:19;19.20;46.30
17296;DHT22;8766;51.480;6.872;2022-07-05T03:57:46;19.20;46.30
17296;DHT22;8766;51.480;6.872;2022-07-05T04:00:14;19.20;46.90
17296;DHT22;8766;51.480;6.872;2022-07-05T04:02:41;19.20;46.30
17296;DHT22;8766;51.480;6.872;2022-07-05T04:05:08;19.20;46.30
17296;DHT22;8766;51.480;6.872;2022-07-05T04:07:47;19.30;46.30
17296;DHT22;8766;51.480;6.872;2022-07-05T04:10:14;19.30;46.30
17296;DHT22;8766;51.480;6.872;2022-07-05T04:12:42;19.30;46.30
17296;DHT22;8766;51.480;6.872;2022-07-05T04:15:10;19.30;46.30
17296;DHT22;8766;51.480;6.872;2022-07-05T04:17:46;19.30;46.30
17296;DHT22;8766;51.480;6.872;2022-07-05T04:20:13;19.30;46.30
17296;DHT22;8766;51.480;6.872;2022-07-05T04:22:40;19.30;46.30
17296;DHT22;8766;51.480;6.872;2022-07-05T04:25:07;19.30;46.30
17296;DHT22;8766;51.480;6.872;2022-07-05T04:27:46;19.30;46.20
17296;DHT22;8766;51.480;6.872;2022-07-05T04:30:14;19.30;46.20
17296;DHT22;8766;51.480;6.872;2022-07-05T04:32:41;19.30;46.10
17296;DHT22;8766;51.480;6.872;2022-07-05T04:35:09;19.40;46.10
17296;DHT22;8766;51.480;6.872;2022-07-05T04:37:37;19.40;46.10
17296;DHT22;8766;51.480;6.872;2022-07-05T04:40:05;19.40;46.00
17296;DHT22;8766;51.480;6.872;2022-07-05T04:42:32;19.50;46.00
17296;DHT22;8766;51.480;6.872;2022-07-05T04:45:01;19.50;45.90
17296;DHT22;8766;51.480;6.872;2022-07-05T04:47:28;19.60;45.90
17296;DHT22;8766;51.480;6.872;2022-07-05T04:49:55;19.60;45.70
17296;DHT22;8766;51.480;6.872;2022-07-05T04:52:23;19.70;45.70
17296;DHT22;8766;51.480;6.872;2022-07-05T04:54:50;19.80;45.60
17296;DHT22;8766;51.480;6.872;2022-07-05T04:57:17;19.90;45.50
17296;DHT22;8766;51.480;6.872;2022-07-05T04:59:44;20.60;45.00
17296;DHT22;8766;51.480;6.872;2022-07-05T05:02:13;22.10;42.60
17296;DHT22;8766;51.480;6.872;2022-07-05T05:04:40;23.90;39.60
17296;DHT22;8766;51.480;6.872;2022-07-05T05:07:07;25.60;37.20
17296;DHT22;8766;51.480;6.872;2022-07-05T05:09:34;27.00;35.50
17296;DHT22;8766;51.480;6.872;2022-07-05T05:12:02;28.20;34.20
17296;DHT22;8766;51.480;6.872;2022-07-05T05:14:29;29.10;33.20
17296;DHT22;8766;51.480;6.872;2022-07-05T05:16:56;29.50;33.00
17296;DHT22;8766;51.480;6.872;2022-07-05T05:19:24;28.90;33.80
17296;DHT22;8766;51.480;6.872;2022-07-05T05:21:51;27.80;35.10
17296;DHT22;8766;51.480;6.872;2022-07-05T05:24:18;27.10;36.30
17296;DHT22;8766;51.480;6.872;2022-07-05T05:26:45;27.40;36.00
17296;DHT22;8766;51.480;6.872;2022-07-05T05:29:12;28.50;34.80
17296;DHT22;8766;51.480;6.872;2022-07-05T05:31:39;29.70;33.50
17296;DHT22;8766;51.480;6.872;2022-07-05T05:34:06;30.80;32.40
17296;DHT22;8766;51.480;6.872;2022-07-05T05:36:35;31.80;31.60
17296;DHT22;8766;51.480;6.872;2022-07-05T05:39:02;32.60;30.90
17296;DHT22;8766;51.480;6.872;2022-07-05T05:41:29;33.10;30.40
17296;DHT22;8766;51.480;6.872;2022-07-05T05:43:56;33.40;30.20
17296;DHT22;8766;51.480;6.872;2022-07-05T05:46:23;33.80;30.00
17296;DHT22;8766;51.480;6.872;2022-07-05T05:48:50;34.10;30.50
17296;DHT22;8766;51.480;6.872;2022-07-05T05:51:17;34.10;30.00
17296;DHT22;8766;51.480;6.872;2022-07-05T05:53:46;34.40;30.00
17296;DHT22;8766;51.480;6.872;2022-07-05T05:56:13;34.20;30.30
17296;DHT22;8766;51.480;6.872;2022-07-05T05:58:40;34.00;30.60
17296;DHT22;8766;51.480;6.872;2022-07-05T06:01:07;33.40;31.30
17296;DHT22;8766;51.480;6.872;2022-07-05T06:03:34;32.40;32.40
17296;DHT22;8766;51.480;6.872;2022-07-05T06:06:01;31.40;33.70
17296;DHT22;8766;51.480;6.872;2022-07-05T06:08:28;30.60;34.70
17296;DHT22;8766;51.480;6.872;2022-07-05T06:10:56;29.90;35.50
17296;DHT22;8766;51.480;6.872;2022-07-05T06:13:23;29.20;36.30
17296;DHT22;8766;51.480;6.872;2022-07-05T06:15:50;29.70;35.80
17296;DHT22;8766;51.480;6.872;2022-07-05T06:18:17;30.80;34.50
17296;DHT22;8766;51.480;6.872;2022-07-05T06:20:44;32.00;33.20
17296;DHT22;8766;51.480;6.872;2022-07-05T06:23:11;32.50;32.40
17296;DHT22;8766;51.480;6.872;2022-07-05T06:25:38;33.00;31.90
17296;DHT22;8766;51.480;6.872;2022-07-05T06:28:08;33.50;31.50
17296;DHT22;8766;51.480;6.872;2022-07-05T06:30:36;33.60;31.30
17296;DHT22;8766;51.480;6.872;2022-07-05T06:33:04;34.30;30.70
17296;DHT22;8766;51.480;6.872;2022-07-05T06:35:31;35.30;30.00
17296;DHT22;8766;51.480;6.872;2022-07-05T06:38:00;36.10;29.50
17296;DHT22;8766;51.480;6.872;2022-07-05T06:40:28;36.90;29.00
17296;DHT22;8766;51.480;6.872;2022-07-05T06:42:56;37.60;28.60
17296;DHT22;8766;51.480;6.872;2022-07-05T06:45:25;38.20;28.20
17296;DHT22;8766;51.480;6.872;2022-07-05T06:47:56;38.80;28.00
17296;DHT22;8766;51.480;6.872;2022-07-05T06:50:23;39.30;27.80
17296;DHT22;8766;51.480;6.872;2022-07-05T06:52:51;39.60;27.60
17296;DHT22;8766;51.480;6.872;2022-07-05T06:55:18;40.00;27.50
17296;DHT22;8766;51.480;6.872;2022-07-05T06:57:45;40.30;27.50
17296;DHT22;8766;51.480;6.872;2022-07-05T07:00:13;40.40;27.50
17296;DHT22;8766;51.480;6.872;2022-07-05T07:02:41;40.50;27.50
17296;DHT22;8766;51.480;6.872;2022-07-05T07:05:08;40.80;27.50
17296;DHT22;8766;51.480;6.872;2022-07-05T07:07:35;40.90;27.40
17296;DHT22;8766;51.480;6.872;2022-07-05T07:10:20;41.10;27.40
17296;DHT22;8766;51.480;6.872;2022-07-05T07:12:47;41.40;27.30
17296;DHT22;8766;51.480;6.872;2022-07-05T07:15:14;41.60;27.30
17296;DHT22;8766;51.480;6.872;2022-07-05T07:17:42;41.80;27.20
17296;DHT22;8766;51.480;6.872;2022-07-05T07:20:10;42.10;27.10
17296;DHT22;8766;51.480;6.872;2022-07-05T07:22:37;42.30;27.00
17296;DHT22;8766;51.480;6.872;2022-07-05T07:25:05;42.60;27.00
17296;DHT22;8766;51.480;6.872;2022-07-05T07:27:41;42.80;27.00
17296;DHT22;8766;51.480;6.872;2022-07-05T07:30:09;42.80;26.90
17296;DHT22;8766;51.480;6.872;2022-07-05T07:32:37;42.90;27.00
17296;DHT22;8766;51.480;6.872;2022-07-05T07:35:06;42.80;27.10
17296;DHT22;8766;51.480;6.872;2022-07-05T07:37:33;42.70;27.20
17296;DHT22;8766;51.480;6.872;2022-07-05T07:40:00;41.90;27.70
17296;DHT22;8766;51.480;6.872;2022-07-05T07:42:32;40.50;28.80
17296;DHT22;8766;51.480;6.872;2022-07-05T07:44:59;38.70;30.00
17296;DHT22;8766;51.480;6.872;2022-07-05T07:47:29;37.10;31.50
17296;DHT22;8766;51.480;6.872;2022-07-05T07:49:56;35.70;32.90
17296;DHT22;8766;51.480;6.872;2022-07-05T07:52:24;34.70;34.00
17296;DHT22;8766;51.480;6.872;2022-07-05T07:54:51;34.00;34.60
17296;DHT22;8766;51.480;6.872;2022-07-05T07:57:18;33.80;34.50
17296;DHT22;8766;51.480;6.872;2022-07-05T07:59:45;33.40;34.80
17296;DHT22;8766;51.480;6.872;2022-07-05T08:02:12;32.80;35.30
17296;DHT22;8766;51.480;6.872;2022-07-05T08:04:39;32.40;35.70
17296;DHT22;8766;51.480;6.872;2022-07-05T08:07:06;32.10;35.80
17296;DHT22;8766;51.480;6.872;2022-07-05T08:09:35;31.80;36.10
17296;DHT22;8766;51.480;6.872;2022-07-05T08:12:02;31.40;36.40
17296;DHT22;8766;51.480;6.872;2022-07-05T08:14:29;31.10;36.60
17296;DHT22;8766;51.480;6.872;2022-07-05T08:16:56;31.50;35.90
17296;DHT22;8766;51.480;6.872;2022-07-05T08:19:24;32.80;34.40
17296;DHT22;8766;51.480;6.872;2022-07-05T08:22:08;34.40;32.30
17296;DHT22;8766;51.480;6.872;2022-07-05T08:24:38;36.00;30.50
17296;DHT22;8766;51.480;6.872;2022-07-05T08:27:05;36.70;29.80
17296;DHT22;8766;51.480;6.872;2022-07-05T08:29:32;36.60;29.80
17296;DHT22;8766;51.480;6.872;2022-07-05T08:31:59;36.40;29.90
17296;DHT22;8766;51.480;6.872;2022-07-05T08:34:26;36.40;30.00
17296;DHT22;8766;51.480;6.872;2022-07-05T08:36:53;36.40;29.90
17296;DHT22;8766;51.480;6.872;2022-07-05T08:39:20;36.40;29.90
17296;DHT22;8766;51.480;6.872;2022-07-05T08:41:50;36.00;30.20
17296;DHT22;8766;51.480;6.872;2022-07-05T08:44:19;35.30;30.80
17296;DHT22;8766;51.480;6.872;2022-07-05T08:46:47;35.00;31.20
17296;DHT22;8766;51.480;6.872;2022-07-05T08:49:20;35.20;30.80
17296;DHT22;8766;51.480;6.872;2022-07-05T08:51:49;35.90;30.00
17296;DHT22;8766;51.480;6.872;2022-07-05T08:54:16;36.60;29.20
17296;DHT22;8766;51.480;6.872;2022-07-05T08:56:44;36.80;29.00
17296;DHT22;8766;51.480;6.872;2022-07-05T08:59:12;36.60;29.60
17296;DHT22;8766;51.480;6.872;2022-07-05T09:01:40;36.10;29.60
17296;DHT22;8766;51.480;6.872;2022-07-05T09:04:08;35.50;30.00
17296;DHT22;8766;51.480;6.872;2022-07-05T09:06:38;35.10;30.60
17296;DHT22;8766;51.480;6.872;2022-07-05T09:09:06;34.60;31.10
17296;DHT22;8766;51.480;6.872;2022-07-05T09:11:36;34.20;31.60
17296;DHT22;8766;51.480;6.872;2022-07-05T09:14:04;33.80;32.00
17296;DHT22;8766;51.480;6.872;2022-07-05T09:16:33;33.30;32.40
17296;DHT22;8766;51.480;6.872;2022-07-05T09:19:06;32.80;33.10
17296;DHT22;8766;51.480;6.872;2022-07-05T09:21:33;32.30;34.20
17296;DHT22;8766;51.480;6.872;2022-07-05T09:24:02;32.10;33.90
17296;DHT22;8766;51.480;6.872;2022-07-05T09:26:34;32.00;34.00
17296;DHT22;8766;51.480;6.872;2022-07-05T09:29:02;31.90;34.00
17296;DHT22;8766;51.480;6.872;2022-07-05T09:31:31;31.80;34.20
17296;DHT22;8766;51.480;6.872;2022-07-05T09:34:06;31.60;34.30
17296;DHT22;8766;51.480;6.872;2022-07-05T09:36:52;31.50;34.40
17296;DHT22;8766;51.480;6.872;2022-07-05T09:39:35;31.40;34.50
17296;DHT22;8766;51.480;6.872;2022-07-05T09:42:15;31.30;34.60
17296;DHT22;8766;51.480;6.872;2022-07-05T09:44:46;31.20;34.70
17296;DHT22;8766;51.480;6.872;2022-07-05T09:47:14;31.10;34.70
17296;DHT22;8766;51.480;6.872;2022-07-05T09:49:44;31.10;34.70
17296;DHT22;8766;51.480;6.872;2022-07-05T09:52:12;31.00;34.70
17296;DHT22;8766;51.480;6.872;2022-07-05T09:55:01;31.00;34.70
17296;DHT22;8766;51.480;6.872;2022-07-05T09:57:28;31.00;34.60
17296;DHT22;8766;51.480;6.872;2022-07-05T09:59:58;31.10;34.50
17296;DHT22;8766;51.480;6.872;2022-07-05T10:02:37;31.10;34.50
17296;DHT22;8766;51.480;6.872;2022-07-05T10:05:10;31.10;34.50
17296;DHT22;8766;51.480;6.872;2022-07-05T10:07:40;31.00;34.50
17296;DHT22;8766;51.480;6.872;2022-07-05T10:10:08;30.90;34.60
17296;DHT22;8766;51.480;6.872;2022-07-05T10:12:36;30.70;34.90
17296;DHT22;8766;51.480;6.872;2022-07-05T10:15:04;30.50;35.10
17296;DHT22;8766;51.480;6.872;2022-07-05T10:17:35;30.20;35.20
17296;DHT22;8766;51.480;6.872;2022-07-05T10:20:05;30.10;35.40
17296;DHT22;8766;51.480;6.872;2022-07-05T10:22:35;29.90;35.50
17296;DHT22;8766;51.480;6.872;2022-07-05T10:25:03;29.80;35.70
17296;DHT22;8766;51.480;6.872;2022-07-05T10:27:32;29.80;35.50
17296;DHT22;8766;51.480;6.872;2022-07-05T10:30:01;29.90;35.40
17296;DHT22;8766;51.480;6.872;2022-07-05T10:32:30;30.10;35.30
17296;DHT22;8766;51.480;6.872;2022-07-05T10:35:00;30.10;35.10
17296;DHT22;8766;51.480;6.872;2022-07-05T10:37:32;30.20;35.00
17296;DHT22;8766;51.480;6.872;2022-07-05T10:40:03;30.20;34.90
17296;DHT22;8766;51.480;6.872;2022-07-05T10:42:36;30.10;35.00
17296;DHT22;8766;51.480;6.872;2022-07-05T10:45:24;29.90;35.30
17296;DHT22;8766;51.480;6.872;2022-07-05T10:48:17;29.60;35.50
17296;DHT22;8766;51.480;6.872;2022-07-05T10:50:45;29.40;35.80
17296;DHT22;8766;51.480;6.872;2022-07-05T10:53:14;29.20;36.00
17296;DHT22;8766;51.480;6.872;2022-07-05T10:55:54;29.10;36.10
17296;DHT22;8766;51.480;6.872;2022-07-05T10:58:36;29.10;36.10
17296;DHT22;8766;51.480;6.872;2022-07-05T11:01:44;29.20;35.90
17296;DHT22;8766;51.480;6.872;2022-07-05T11:04:36;29.40;35.60
17296;DHT22;8766;51.480;6.872;2022-07-05T11:08:09;29.40;35.50
17296;DHT22;8766;51.480;6.872;2022-07-05T11:24:26;29.60;35.00
17296;DHT22;8766;51.480;6.872;2022-07-05T11:27:32;29.60;35.70
17296;DHT22;8766;51.480;6.872;2022-07-05T11:30:25;29.60;35.00
17296;DHT22;8766;51.480;6.872;2022-07-05T11:33:36;29.50;35.20
17296;DHT22;8766;51.480;6.872;2022-07-05T11:37:23;29.30;35.30
17296;DHT22;8766;51.480;6.872;2022-07-05T11:40:38;29.20;35.50
17296;DHT22;8766;51.480;6.872;2022-07-05T11:43:37;29.00;35.80
17296;DHT22;8766;51.480;6.872;2022-07-05T11:46:38;28.90;35.70
17296;DHT22;8766;51.480;6.872;2022-07-05T11:49:10;28.90;35.80
17296;DHT22;8766;51.480;6.872;2022-07-05T11:52:01;29.00;35.60
17296;DHT22;8766;51.480;6.872;2022-07-05T11:55:02;29.20;35.50
17296;DHT22;8766;51.480;6.872;2022-07-05T12:01:20;29.30;35.30
17296;DHT22;8766;51.480;6.872;2022-07-05T12:04:02;29.30;35.20
17296;DHT22;8766;51.480;6.872;2022-07-05T12:06:48;29.30;35.10
17296;DHT22;8766;51.480;6.872;2022-07-05T12:09:40;29.30;35.10
17296;DHT22;8766;51.480;6.872;2022-07-05T12:12:44;29.40;35.00
17296;DHT22;8766;51.480;6.872;2022-07-05T12:15:26;29.50;34.90
17296;DHT22;8766;51.480;6.872;2022-07-05T12:18:56;29.50;34.90
17296;DHT22;8766;51.480;6.872;2022-07-05T12:24:54;29.20;35.10
17296;DHT22;8766;51.480;6.872;2022-07-05T12:27:43;29.20;35.30
17296;DHT22;8766;51.480;6.872;2022-07-05T12:30:23;29.20;35.10
17296;DHT22;8766;51.480;6.872;2022-07-05T12:33:39;29.30;35.00
17296;DHT22;8766;51.480;6.872;2022-07-05T12:36:17;29.60;34.80
17296;DHT22;8766;51.480;6.872;2022-07-05T12:39:06;29.60;34.70
17296;DHT22;8766;51.480;6.872;2022-07-05T12:41:42;29.30;34.90
17296;DHT22;8766;51.480;6.872;2022-07-05T12:44:09;29.20;35.10
17296;DHT22;8766;51.480;6.872;2022-07-05T12:46:36;29.10;35.20
17296;DHT22;8766;51.480;6.872;2022-07-05T12:49:05;29.10;35.20
17296;DHT22;8766;51.480;6.872;2022-07-05T12:51:34;29.00;35.40
17296;DHT22;8766;51.480;6.872;2022-07-05T12:54:02;28.90;35.40
17296;DHT22;8766;51.480;6.872;2022-07-05T12:56:47;29.00;35.40
17296;DHT22;8766;51.480;6.872;2022-07-05T12:59:31;29.10;35.10
17296;DHT22;8766;51.480;6.872;2022-07-05T13:01:58;29.30;35.00
17296;DHT22;8766;51.480;6.872;2022-07-05T13:04:27;29.30;34.90
17296;DHT22;8766;51.480;6.872;2022-07-05T13:06:55;29.20;35.00
17296;DHT22;8766;51.480;6.872;2022-07-05T13:09:33;29.20;35.20
17296;DHT22;8766;51.480;6.872;2022-07-05T13:12:08;29.10;35.30
17296;DHT22;8766;51.480;6.872;2022-07-05T13:14:37;29.10;35.30
17296;DHT22;8766;51.480;6.872;2022-07-05T13:17:05;29.10;35.20
17296;DHT22;8766;51.480;6.872;2022-07-05T13:19:33;29.20;35.10
17296;DHT22;8766;51.480;6.872;2022-07-05T13:22:00;29.30;34.90
17296;DHT22;8766;51.480;6.872;2022-07-05T13:24:28;29.40;34.80
17296;DHT22;8766;51.480;6.872;2022-07-05T13:26:55;29.60;34.70
17296;DHT22;8766;51.480;6.872;2022-07-05T13:29:22;29.70;34.40
17296;DHT22;8766;51.480;6.872;2022-07-05T13:31:49;29.90;34.30
17296;DHT22;8766;51.480;6.872;2022-07-05T13:34:16;29.90;34.20
17296;DHT22;8766;51.480;6.872;2022-07-05T13:36:45;29.80;34.40
17296;DHT22;8766;51.480;6.872;2022-07-05T13:39:12;29.60;34.60
17296;DHT22;8766;51.480;6.872;2022-07-05T13:41:39;29.30;35.00
17296;DHT22;8766;51.480;6.872;2022-07-05T13:44:06;29.10;35.20
17296;DHT22;8766;51.480;6.872;2022-07-05T13:46:33;29.10;35.30
17296;DHT22;8766;51.480;6.872;2022-07-05T13:49:00;29.20;35.10
17296;DHT22;8766;51.480;6.872;2022-07-05T13:51:27;29.30;35.00
17296;DHT22;8766;51.480;6.872;2022-07-05T13:53:56;29.30;34.90
17296;DHT22;8766;51.480;6.872;2022-07-05T13:56:23;29.30;35.00
17296;DHT22;8766;51.480;6.872;2022-07-05T13:58:51;29.10;35.20
17296;DHT22;8766;51.480;6.872;2022-07-05T14:01:18;29.00;35.40
17296;DHT22;8766;51.480;6.872;2022-07-05T14:03:50;29.00;35.40
17296;DHT22;8766;51.480;6.872;2022-07-05T14:06:19;29.00;35.40
17296;DHT22;8766;51.480;6.872;2022-07-05T14:08:46;28.90;35.40
17296;DHT22;8766;51.480;6.872;2022-07-05T14:11:15;28.80;35.50
17296;DHT22;8766;51.480;6.872;2022-07-05T14:13:42;28.70;35.60
17296;DHT22;8766;51.480;6.872;2022-07-05T14:16:09;28.60;35.80
17296;DHT22;8766;51.480;6.872;2022-07-05T14:18:36;28.50;35.90
17296;DHT22;8766;51.480;6.872;2022-07-05T14:21:03;28.40;36.10
17296;DHT22;8766;51.480;6.872;2022-07-05T14:23:30;28.20;36.20
17296;DHT22;8766;51.480;6.872;2022-07-05T14:25:58;28.10;36.30
17296;DHT22;8766;51.480;6.872;2022-07-05T14:28:26;28.00;36.50
17296;DHT22;8766;51.480;6.872;2022-07-05T14:30:53;28.00;36.40
17296;DHT22;8766;51.480;6.872;2022-07-05T14:33:20;28.20;36.20
17296;DHT22;8766;51.480;6.872;2022-07-05T14:35:48;28.30;36.00
17296;DHT22;8766;51.480;6.872;2022-07-05T14:38:15;28.40;35.80
17296;DHT22;8766;51.480;6.872;2022-07-05T14:40:42;28.60;35.70
17296;DHT22;8766;51.480;6.872;2022-07-05T14:43:09;28.70;35.50
17296;DHT22;8766;51.480;6.872;2022-07-05T14:45:37;28.70;35.40
17296;DHT22;8766;51.480;6.872;2022-07-05T14:48:04;28.80;35.40
17296;DHT22;8766;51.480;6.872;2022-07-05T14:50:32;28.70;35.50
17296;DHT22;8766;51.480;6.872;2022-07-05T14:52:59;28.70;35.50
17296;DHT22;8766;51.480;6.872;2022-07-05T14:55:31;28.80;35.50
17296;DHT22;8766;51.480;6.872;2022-07-05T14:57:58;28.70;35.50
17296;DHT22;8766;51.480;6.872;2022-07-05T15:00:26;28.60;35.70
17296;DHT22;8766;51.480;6.872;2022-07-05T15:02:54;28.50;35.90
17296;DHT22;8766;51.480;6.872;2022-07-05T15:05:21;28.40;36.10
17296;DHT22;8766;51.480;6.872;2022-07-05T15:07:48;28.20;36.20
17296;DHT22;8766;51.480;6.872;2022-07-05T15:10:15;28.10;36.40
17296;DHT22;8766;51.480;6.872;2022-07-05T15:12:42;28.00;36.50
17296;DHT22;8766;51.480;6.872;2022-07-05T15:15:10;27.80;36.60
17296;DHT22;8766;51.480;6.872;2022-07-05T15:17:38;27.70;36.80
17296;DHT22;8766;51.480;6.872;2022-07-05T15:20:07;27.60;37.00
17296;DHT22;8766;51.480;6.872;2022-07-05T15:22:34;27.50;37.20
17296;DHT22;8766;51.480;6.872;2022-07-05T15:25:01;27.30;37.20
17296;DHT22;8766;51.480;6.872;2022-07-05T15:27:28;27.20;37.30
17296;DHT22;8766;51.480;6.872;2022-07-05T15:29:58;27.20;37.40
17296;DHT22;8766;51.480;6.872;2022-07-05T15:32:25;27.10;37.50
17296;DHT22;8766;51.480;6.872;2022-07-05T15:34:52;27.10;37.50
17296;DHT22;8766;51.480;6.872;2022-07-05T15:37:20;27.10;37.40
17296;DHT22;8766;51.480;6.872;2022-07-05T15:39:47;27.20;37.40
17296;DHT22;8766;51.480;6.872;2022-07-05T15:42:14;27.20;37.30
17296;DHT22;8766;51.480;6.872;2022-07-05T15:44:44;27.10;37.30
17296;DHT22;8766;51.480;6.872;2022-07-05T15:47:11;27.10;37.30
17296;DHT22;8766;51.480;6.872;2022-07-05T15:49:39;27.00;37.70
17296;DHT22;8766;51.480;6.872;2022-07-05T15:52:06;26.90;37.60
17296;DHT22;8766;51.480;6.872;2022-07-05T15:54:35;26.80;37.70
17296;DHT22;8766;51.480;6.872;2022-07-05T15:57:03;26.70;37.80
17296;DHT22;8766;51.480;6.872;2022-07-05T15:59:30;26.60;37.90
17296;DHT22;8766;51.480;6.872;2022-07-05T16:01:57;26.60;37.90
17296;DHT22;8766;51.480;6.872;2022-07-05T16:04:24;26.50;37.80
17296;DHT22;8766;51.480;6.872;2022-07-05T16:06:55;26.50;37.90
17296;DHT22;8766;51.480;6.872;2022-07-05T16:09:23;26.50;38.00
17296;DHT22;8766;51.480;6.872;2022-07-05T16:11:51;26.40;38.00
17296;DHT22;8766;51.480;6.872;2022-07-05T16:14:18;26.40;38.10
17296;DHT22;8766;51.480;6.872;2022-07-05T16:16:45;26.40;38.10
17296;DHT22;8766;51.480;6.872;2022-07-05T16:19:12;26.40;38.00
17296;DHT22;8766;51.480;6.872;2022-07-05T16:21:40;26.40;38.00
17296;DHT22;8766;51.480;6.872;2022-07-05T16:24:07;26.40;37.80
17296;DHT22;8766;51.480;6.872;2022-07-05T16:26:35;26.40;37.80